Time;durP1;ratioP1;P1;durP2;ratioP2;P2;SDS_P1;SDS_P2;PMS_P1;PMS_P2;Temp;Humidity;BMP_temperature;BMP_pressure;BME280_temperature;BME280_humidity;BME280_pressure;Samples;Min_cycle;Max_cycle;Signal;HPM_P1;HPM_P2
2021/08/30 00:02:05;;;;;;;4.60;3.60;;;;;;;14.87;100.00;100447.94;5037532;28;20044;-70
2021/08/30 00:04:49;;;;;;;5.95;2.97;;;;;;;14.82;100.00;100432.38;5051640;28;20099;-70
2021/08/30 00:07:33;;;;;;;3.60;3.28;;;;;;;14.82;100.00;100432.38;5037513;28;20044;-70
2021/08/30 00:10:17;;;;;;;5.07;3.40;;;;;;;14.82;100.00;100432.38;5051542;28;20094;-70
2021/08/30 00:13:01;;;;;;;7.72;3.60;;;;;;;14.82;100.00;100431.50;5054121;28;20044;-70
2021/08/30 00:15:45;;;;;;;4.82;3.78;;;;;;;14.79;100.00;100430.00;5055703;28;20098;-70
2021/08/30 00:18:29;;;;;;;4.00;3.60;;;;;;;14.79;100.00;100431.84;5056252;28;20439;-70
2021/08/30 00:21:12;;;;;;;5.57;3.50;;;;;;;14.77;100.00;100429.34;5055280;28;20079;-70
2021/08/30 00:23:56;;;;;;;4.00;3.60;;;;;;;14.74;100.00;100423.44;5056763;28;20051;-70
2021/08/30 00:26:40;;;;;;;4.20;3.22;;;;;;;14.79;100.00;100431.84;5055244;28;20052;-70
2021/08/30 00:29:27;;;;;;;6.15;3.38;;;;;;;14.75;100.00;100425.13;5055469;28;20049;-70
2021/08/30 00:32:11;;;;;;;6.03;3.75;;;;;;;14.73;100.00;100425.31;5055409;28;20044;-70
2021/08/30 00:34:55;;;;;;;7.15;4.28;;;;;;;14.76;100.00;100424.13;5056281;28;20043;-70
2021/08/30 00:37:39;;;;;;;5.85;3.75;;;;;;;14.77;100.00;100412.38;5054957;28;20052;-70
2021/08/30 00:40:23;;;;;;;6.45;3.78;;;;;;;14.78;100.00;100414.91;5054973;28;20051;-70
2021/08/30 00:43:08;;;;;;;9.98;4.05;;;;;;;14.73;100.00;100416.41;5040843;28;20558;-70
2021/08/30 00:45:52;;;;;;;5.05;4.25;;;;;;;14.75;100.00;100419.75;5056366;28;20048;-70
2021/08/30 00:48:36;;;;;;;7.65;4.78;;;;;;;14.74;100.00;100424.31;5040739;28;20052;-70
2021/08/30 00:51:21;;;;;;;6.55;4.10;;;;;;;14.75;100.00;100419.75;5040933;28;20428;-70
2021/08/30 00:54:05;;;;;;;5.18;4.30;;;;;;;14.72;100.00;100420.97;5055010;28;20063;-70
2021/08/30 00:56:49;;;;;;;7.50;4.03;;;;;;;14.70;100.00;100417.56;5040954;28;20111;-70
2021/08/30 00:59:38;;;;;;;4.72;4.07;;;;;;;14.69;100.00;100417.75;5054863;28;20044;-70
2021/08/30 01:02:22;;;;;;;6.50;4.18;;;;;;;14.68;100.00;100413.41;5054630;28;20171;-69
2021/08/30 01:05:06;;;;;;;9.25;3.90;;;;;;;14.64;100.00;100417.41;5040685;28;20048;-70
2021/08/30 01:07:53;;;;;;;7.75;4.10;;;;;;;14.62;100.00;100414.91;5055348;28;20422;-70
2021/08/30 01:11:01;;;;;;;4.70;3.80;;;;;;;14.57;100.00;100419.09;5055639;28;20395;-69
2021/08/30 01:13:54;;;;;;;9.02;4.55;;;;;;;14.59;100.00;100415.22;5055335;28;20044;-70
2021/08/30 01:16:38;;;;;;;5.75;4.25;;;;;;;14.56;100.00;100415.56;5054080;28;20130;-69
2021/08/30 01:19:31;;;;;;;5.40;3.50;;;;;;;14.57;100.00;100411.03;5040505;28;20044;-70
2021/08/30 01:22:17;;;;;;;6.78;3.97;;;;;;;14.56;100.00;100414.72;5054218;28;20129;-70
2021/08/30 01:25:02;;;;;;;5.75;3.88;;;;;;;14.58;100.00;100413.53;5054200;28;20412;-70
2021/08/30 01:27:47;;;;;;;5.90;3.97;;;;;;;14.57;100.00;100411.03;5040073;28;20055;-70
2021/08/30 01:30:33;;;;;;;7.88;4.00;;;;;;;14.59;100.00;100406.34;5040251;28;20044;-70
2021/08/30 01:33:17;;;;;;;4.70;3.92;;;;;;;14.57;100.00;100408.38;5054071;28;20048;-70
2021/08/30 01:36:01;;;;;;;5.53;4.10;;;;;;;14.56;100.00;100404.84;5054134;28;20055;-70
2021/08/30 01:38:45;;;;;;;7.22;3.75;;;;;;;14.54;100.00;100401.47;5053900;28;20525;-70
2021/08/30 01:41:30;;;;;;;7.93;4.15;;;;;;;14.57;100.00;100411.03;5039953;28;20094;-70
2021/08/30 01:44:14;;;;;;;7.15;4.05;;;;;;;14.61;100.00;100401.66;5039983;28;20414;-70
2021/08/30 01:46:59;;;;;;;5.63;4.28;;;;;;;14.61;100.00;100410.53;5053835;28;20060;-70
2021/08/30 01:49:43;;;;;;;5.85;4.72;;;;;;;14.65;100.00;100402.97;5039874;28;20495;-70
2021/08/30 01:52:30;;;;;;;7.90;4.40;;;;;;;14.65;100.00;100397.63;5053640;28;20132;-70
2021/08/30 01:55:23;;;;;;;6.80;4.82;;;;;;;14.62;100.00;100396.13;5053835;28;20119;-70
2021/08/30 02:00:52;;;;;;;7.13;4.13;;;;;;;14.63;100.00;100403.16;5053703;28;20064;-70
2021/08/30 02:03:36;;;;;;;5.43;4.75;;;;;;;14.66;100.00;100394.78;5039613;28;20506;-69
2021/08/30 02:06:20;;;;;;;8.32;4.30;;;;;;;14.68;100.00;100395.44;5053525;28;20518;-70
2021/08/30 02:09:04;;;;;;;5.97;4.30;;;;;;;14.70;100.00;100401.47;5053353;28;20090;-70
2021/08/30 02:11:48;;;;;;;6.35;4.75;;;;;;;14.70;100.00;100400.66;5053469;28;20047;-69
2021/08/30 02:14:32;;;;;;;8.18;5.18;;;;;;;14.69;100.00;100398.97;5054716;28;20056;-70
2021/08/30 02:17:22;;;;;;;11.68;5.65;;;;;;;14.68;100.00;100403.50;5054014;28;20118;-70
2021/08/30 02:20:10;;;;;;;7.32;5.05;;;;;;;14.69;100.00;100399.81;5053275;28;20423;-70
2021/08/30 02:22:54;;;;;;;7.38;5.18;;;;;;;14.67;100.00;100396.44;5053105;28;20048;-70
2021/08/30 02:25:39;;;;;;;7.53;5.65;;;;;;;14.68;100.00;100395.44;5039116;28;20059;-70
2021/08/30 02:28:24;;;;;;;6.88;5.72;;;;;;;14.69;100.00;100394.44;5039263;28;20052;-69
2021/08/30 02:31:10;;;;;;;7.40;6.30;;;;;;;14.68;100.00;100395.44;5038774;28;20123;-70
2021/08/30 02:33:54;;;;;;;9.25;6.25;;;;;;;14.69;100.00;100396.28;5053747;28;20419;-70
2021/08/30 02:36:39;;;;;;;8.75;6.05;;;;;;;14.70;100.00;100395.28;5038338;28;20047;-70
2021/08/30 02:39:24;;;;;;;8.13;6.22;;;;;;;14.70;100.00;100400.66;5052881;28;20114;-68
2021/08/30 02:42:08;;;;;;;7.63;5.85;;;;;;;14.72;100.00;100398.63;5052717;28;20207;-69
2021/08/30 02:44:52;;;;;;;7.20;5.75;;;;;;;14.71;100.00;100397.78;5038829;28;20460;-70
2021/08/30 02:47:36;;;;;;;9.35;5.80;;;;;;;14.72;100.00;100390.59;5052561;28;20052;-70
2021/08/30 02:50:21;;;;;;;6.70;5.53;;;;;;;14.78;100.00;100387.25;5038733;28;20516;-69
2021/08/30 02:53:05;;;;;;;6.70;6.00;;;;;;;14.80;100.00;100385.22;5038767;28;20513;-70
2021/08/30 02:55:51;;;;;;;9.60;6.03;;;;;;;14.75;100.00;100388.41;5052712;28;20454;-69
2021/08/30 02:58:36;;;;;;;8.05;6.25;;;;;;;14.83;100.00;100390.25;5038661;28;20052;-70
2021/08/30 03:01:20;;;;;;;10.60;5.90;;;;;;;14.84;100.00;100391.91;5038536;28;20171;-70
2021/08/30 03:04:04;;;;;;;8.93;6.00;;;;;;;14.86;100.00;100392.59;5052614;28;20136;-70
2021/08/30 03:06:48;;;;;;;6.25;5.45;;;;;;;14.83;100.00;100390.25;5052336;28;20144;-70
2021/08/30 03:09:32;;;;;;;7.65;6.10;;;;;;;14.86;100.00;100379.16;5038682;28;20047;-70
2021/08/30 03:12:18;;;;;;;8.43;6.50;;;;;;;14.89;100.00;100387.72;5038133;28;20051;-70
2021/08/30 03:15:04;;;;;;;7.60;6.50;;;;;;;14.86;100.00;100368.44;5052451;28;20083;-70
2021/08/30 03:17:49;;;;;;;7.75;6.03;;;;;;;14.88;100.00;100382.53;5051979;28;20099;-70
2021/08/30 03:20:33;;;;;;;7.43;5.70;;;;;;;14.88;100.00;100382.53;5052336;28;20102;-68
2021/08/30 03:23:17;;;;;;;7.30;6.25;;;;;;;14.87;100.00;100380.84;5052519;28;20083;-70
2021/08/30 03:26:01;;;;;;;6.47;5.78;;;;;;;14.87;100.00;100386.22;5052373;28;20162;-70
2021/08/30 03:28:45;;;;;;;6.72;5.90;;;;;;;14.89;100.00;100381.53;5037933;28;20110;-68
2021/08/30 03:31:31;;;;;;;8.38;5.35;;;;;;;14.89;100.00;100386.91;5038140;28;20052;-70
2021/08/30 03:34:16;;;;;;;5.95;5.20;;;;;;;14.83;100.00;100390.25;5052169;28;20052;-70
2021/08/30 03:37:02;;;;;;;7.93;5.90;;;;;;;14.82;100.00;100384.06;5038023;28;20051;-69
2021/08/30 03:39:46;;;;;;;6.40;5.38;;;;;;;14.88;100.00;100383.38;5038007;28;20071;-70
2021/08/30 03:42:30;;;;;;;6.63;5.65;;;;;;;14.85;100.00;100383.72;5053418;28;20076;-70
2021/08/30 03:45:14;;;;;;;10.60;6.05;;;;;;;14.88;100.00;100387.91;5052146;28;20103;-70
2021/08/30 03:47:59;;;;;;;6.47;5.57;;;;;;;14.89;100.00;100386.91;5054130;28;20106;-70
2021/08/30 03:50:44;;;;;;;10.18;5.57;;;;;;;14.87;100.00;100387.06;5041995;28;20044;-70
2021/08/30 03:53:29;;;;;;;7.32;5.50;;;;;;;14.92;100.00;100378.50;5041812;28;20102;-69
2021/08/30 03:56:14;;;;;;;10.85;4.93;;;;;;;14.93;100.00;100375.66;5056021;28;20128;-70
2021/08/30 03:58:59;;;;;;;7.88;5.68;;;;;;;14.88;100.00;100379.84;5041880;28;20079;-70
2021/08/30 04:01:45;;;;;;;5.65;4.93;;;;;;;14.86;100.00;100373.78;5055911;28;20131;-70
2021/08/30 04:04:31;;;;;;;5.97;5.38;;;;;;;14.91;100.00;100382.19;5056927;28;20056;-70
2021/08/30 04:07:17;;;;;;;8.45;5.75;;;;;;;14.91;100.00;100374.97;5055644;28;20128;-70
2021/08/30 04:10:01;;;;;;;5.68;4.82;;;;;;;14.92;100.00;100383.88;5055508;28;20560;-70
2021/08/30 04:12:45;;;;;;;8.73;5.10;;;;;;;14.93;100.00;100382.84;5041733;28;20071;-70
2021/08/30 04:15:30;;;;;;;5.57;4.70;;;;;;;14.92;100.00;100378.50;5041696;28;20052;-70
2021/08/30 04:18:14;;;;;;;6.35;5.00;;;;;;;14.90;100.00;100381.34;5055466;28;20048;-70
2021/08/30 04:20:58;;;;;;;6.07;5.07;;;;;;;14.90;100.00;100380.53;5056273;28;20044;-70
2021/08/30 04:23:41;;;;;;;6.57;5.30;;;;;;;14.88;100.00;100378.00;5055574;28;20202;-70
2021/08/30 04:26:25;;;;;;;7.05;4.88;;;;;;;14.90;100.00;100375.97;5056443;28;20135;-70
2021/08/30 04:29:09;;;;;;;6.95;5.35;;;;;;;14.86;100.00;100381.84;5041387;28;20075;-70
2021/08/30 04:31:53;;;;;;;6.95;5.60;;;;;;;14.88;100.00;100388.72;5055183;28;20051;-69
2021/08/30 04:34:38;;;;;;;6.90;5.35;;;;;;;14.90;100.00;100391.25;5055660;28;20048;-70
2021/08/30 04:37:22;;;;;;;10.48;5.50;;;;;;;14.89;100.00;100394.94;5055426;28;20095;-70
2021/08/30 04:40:07;;;;;;;11.73;5.88;;;;;;;14.90;100.00;100394.75;5055260;28;20477;-69
2021/08/30 04:42:51;;;;;;;11.10;5.22;;;;;;;14.86;100.00;100395.28;5040936;28;20052;-69
2021/08/30 04:45:39;;;;;;;9.82;5.30;;;;;;;14.80;100.00;100401.31;5054932;28;20055;-70
2021/08/30 04:48:23;;;;;;;10.30;5.63;;;;;;;14.81;100.00;100392.25;5055858;28;20418;-70
2021/08/30 04:51:06;;;;;;;7.13;5.68;;;;;;;14.83;100.00;100396.47;5054891;28;20052;-70
2021/08/30 04:53:50;;;;;;;8.00;6.05;;;;;;;14.87;100.00;100397.78;5040673;28;20426;-70
2021/08/30 04:56:34;;;;;;;;;;;;;;;14.88;100.00;100398.66;5055267;28;20099;-69
2021/08/30 04:59:18;;;;;;;6.80;5.47;;;;;;;14.86;100.00;100406.00;5054396;28;19919;-70
2021/08/30 05:02:02;;;;;;;;;;;;;;;14.91;100.00;100398.31;5056239;28;20511;-70
2021/08/30 05:04:46;;;;;;;9.27;5.55;;;;;;;14.89;100.00;100394.94;5054532;28;19923;-70
2021/08/30 05:07:30;;;;;;;7.10;5.25;;;;;;;14.89;100.00;100403.81;5055479;28;20132;-70
2021/08/30 05:10:14;;;;;;;8.35;5.50;;;;;;;14.91;100.00;100403.66;5055005;28;20578;-70
2021/08/30 05:12:58;;;;;;;6.60;5.57;;;;;;;14.91;100.00;100404.50;5054369;28;20557;-68
2021/08/30 05:15:42;;;;;;;7.22;5.35;;;;;;;14.93;100.00;100407.88;5055486;28;20510;-69
2021/08/30 05:18:26;;;;;;;8.57;5.28;;;;;;;14.97;100.00;100408.34;5093841;22;20055;-67
2021/08/30 05:21:09;;;;;;;10.45;5.70;;;;;;;14.98;100.00;100410.06;5095819;28;20070;-66
2021/08/30 05:23:53;;;;;;;8.70;5.50;;;;;;;14.94;100.00;100414.06;5094582;28;20055;-65
2021/08/30 05:26:37;;;;;;;5.88;5.18;;;;;;;15.00;100.00;100418.78;5095661;28;20054;-68
2021/08/30 05:29:21;;;;;;;8.98;5.43;;;;;;;15.00;100.00;100418.78;5075482;28;20051;-67
2021/08/30 05:32:06;;;;;;;6.10;5.45;;;;;;;14.99;100.00;100423.28;5075344;28;20109;-67
2021/08/30 05:34:50;;;;;;;7.78;5.88;;;;;;;15.07;100.00;100414.38;5074336;28;20047;-67
2021/08/30 05:37:34;;;;;;;8.68;6.18;;;;;;;15.09;100.00;100417.75;5073942;28;20051;-68
2021/08/30 05:40:18;;;;;;;10.88;5.18;;;;;;;15.13;100.00;100424.47;5074106;28;20098;-67
2021/08/30 05:43:02;;;;;;;6.95;5.03;;;;;;;15.14;100.00;100420.75;5074203;28;20137;-67
2021/08/30 05:45:46;;;;;;;6.88;5.25;;;;;;;15.15;100.00;100423.28;5075065;28;20048;-68
2021/08/30 05:48:30;;;;;;;6.53;5.22;;;;;;;15.19;100.00;100423.78;5074752;28;20418;-67
2021/08/30 05:51:14;;;;;;;8.13;5.35;;;;;;;15.25;100.00;100420.41;5073994;28;20449;-67
2021/08/30 05:53:58;;;;;;;6.13;5.22;;;;;;;15.35;100.00;100418.41;5073931;28;20098;-67
2021/08/30 05:56:42;;;;;;;6.47;5.00;;;;;;;15.33;100.00;100417.75;5074797;28;20117;-67
2021/08/30 05:59:26;;;;;;;5.13;4.63;;;;;;;15.45;100.00;100424.44;5073582;28;20154;-67
2021/08/30 06:02:10;;;;;;;5.55;4.95;;;;;;;15.49;100.00;100423.94;5059320;28;20111;-67
2021/08/30 06:04:55;;;;;;;5.82;5.00;;;;;;;15.58;100.00;100418.34;5074085;28;20139;-67
2021/08/30 06:07:40;;;;;;;7.82;4.60;;;;;;;15.62;100.00;100426.91;5073440;28;20106;-67
2021/08/30 06:10:23;;;;;;;7.18;4.93;;;;;;;15.65;100.00;100432.78;5073697;28;20093;-67
2021/08/30 06:13:07;;;;;;;9.40;5.35;;;;;;;15.75;100.00;100429.91;5074241;28;20055;-67
2021/08/30 06:15:51;;;;;;;6.85;4.25;;;;;;;15.80;100.00;100431.06;5073773;28;20050;-67
2021/08/30 06:18:35;;;;;;;5.57;4.45;;;;;;;15.89;100.00;100429.16;5072986;28;20087;-68
2021/08/30 06:21:19;;;;;;;4.82;4.32;;;;;;;15.99;100.00;100424.44;5074084;28;20047;-66
2021/08/30 06:24:04;;;;;;;8.48;4.10;;;;;;;16.03;100.00;100426.59;5074374;28;20502;-68
2021/08/30 06:26:48;;;;;;;7.68;4.88;;;;;;;16.04;100.00;100425.56;5073921;28;20082;-67
2021/08/30 06:29:32;;;;;;;6.85;4.30;;;;;;;16.04;100.00;100428.25;5072997;28;20047;-65
2021/08/30 06:32:16;;;;;;;5.80;4.90;;;;;;;16.07;100.00;100432.47;5073247;28;20052;-67
2021/08/30 06:35:00;;;;;;;6.60;5.15;;;;;;;16.05;100.00;100432.63;5058826;28;20067;-67
2021/08/30 06:37:44;;;;;;;5.97;5.20;;;;;;;16.05;100.00;100427.25;5073972;28;20043;-68
2021/08/30 06:40:29;;;;;;;8.23;5.55;;;;;;;16.06;100.00;100434.28;5073920;28;20089;-67
2021/08/30 06:43:12;;;;;;;7.70;5.45;;;;;;;16.11;100.00;100428.41;5073902;28;20098;-68
2021/08/30 06:45:56;;;;;;;5.55;4.97;;;;;;;16.11;100.00;100431.94;5058800;28;20051;-67
2021/08/30 06:48:40;;;;;;;6.20;4.85;;;;;;;16.14;100.00;100428.88;5072849;28;20051;-68
2021/08/30 06:51:24;;;;;;;7.40;6.13;;;;;;;16.20;100.00;100430.03;5058667;28;20584;-68
2021/08/30 06:54:08;;;;;;;8.05;6.35;;;;;;;16.18;100.00;100427.50;5072795;28;20071;-68
2021/08/30 06:56:52;;;;;;;6.25;5.53;;;;;;;16.21;100.00;100429.03;5072702;28;20109;-67
2021/08/30 06:59:36;;;;;;;8.40;7.25;;;;;;;16.31;100.00;100435.88;5073708;28;20047;-68
2021/08/30 07:02:21;;;;;;;7.45;6.45;;;;;;;16.38;100.00;100431.47;5072726;28;20177;-68
2021/08/30 07:05:05;;;;;;;10.65;6.50;;;;;;;16.48;100.00;100436.63;5072629;28;20117;-69
2021/08/30 07:07:50;;;;;;;7.43;6.43;;;;;;;16.59;100.00;100438.91;5072389;28;20055;-68
2021/08/30 07:10:33;;;;;;;8.38;6.72;;;;;;;16.71;100.00;100441.03;5058465;28;20043;-68
2021/08/30 07:13:17;;;;;;;10.98;7.35;;;;;;;16.80;100.00;100437.22;5073295;28;20114;-68
2021/08/30 07:16:01;;;;;;;12.27;7.40;;;;;;;16.89;100.00;100440.72;5073479;28;20109;-67
2021/08/30 07:18:45;;;;;;;8.88;7.15;;;;;;;16.96;100.00;100442.50;5072293;28;20091;-68
2021/08/30 07:21:29;;;;;;;7.35;6.30;;;;;;;17.05;100.00;100444.13;5073307;28;20047;-68
2021/08/30 07:24:13;;;;;;;8.88;6.22;;;;;;;17.16;100.00;100437.44;5073406;28;20070;-66
2021/08/30 07:26:57;;;;;;;7.97;6.68;;;;;;;17.22;100.00;100432.19;5058153;28;20509;-67
2021/08/30 07:29:41;;;;;;;10.80;7.60;;;;;;;17.34;100.00;100438.81;5072429;28;20407;-68
2021/08/30 07:32:25;;;;;;;8.35;7.13;;;;;;;17.41;100.00;100442.44;5072386;28;20406;-68
2021/08/30 07:35:10;;;;;;;8.30;6.72;;;;;;;17.50;100.00;100438.66;5072170;28;20051;-68
2021/08/30 07:37:55;;;;;;;9.57;6.57;;;;;;;17.66;100.00;100437.66;5057984;28;20047;-68
2021/08/30 07:40:39;;;;;;;8.52;6.20;;;;;;;17.70;100.00;100439.78;5073147;28;20530;-68
2021/08/30 07:43:23;;;;;;;6.47;5.78;;;;;;;17.80;100.00;100448.44;5072328;28;20051;-68
2021/08/30 07:46:06;;;;;;;;;;;;;;;17.84;100.00;100438.97;5073336;28;20127;-67
2021/08/30 07:48:51;;;;;;;7.50;6.53;;;;;;;17.94;100.00;100446.78;5071819;28;20392;-67
2021/08/30 07:51:34;;;;;;;8.80;6.82;;;;;;;17.90;100.00;100448.19;5073043;28;20051;-67
2021/08/30 07:54:18;;;;;;;10.85;7.03;;;;;;;17.97;100.00;100455.31;5072368;28;20047;-67
2021/08/30 07:57:02;;;;;;;7.35;5.88;;;;;;;18.00;100.00;100465.75;5071995;28;20058;-68
2021/08/30 07:59:46;;;;;;;9.18;6.85;;;;;;;18.04;100.00;100452.72;5072709;28;20555;-68
2021/08/30 08:02:30;;;;;;;8.77;6.38;;;;;;;18.06;100.00;100465.00;5071759;28;20091;-67
2021/08/30 08:05:14;;;;;;;6.93;5.90;;;;;;;18.05;100.00;100467.88;5071719;28;20101;-67
2021/08/30 08:07:58;;;;;;;7.55;6.15;;;;;;;18.02;100.00;100469.06;5072818;28;20094;-68
2021/08/30 08:10:43;;;;;;;6.00;5.40;;;;;;;18.02;100.00;100468.25;5071960;28;20046;-66
2021/08/30 08:13:29;;;;;;;8.13;6.30;;;;;;;18.02;100.00;100474.47;5057590;28;20052;-68
2021/08/30 08:16:14;;;;;;;9.35;7.05;;;;;;;18.08;100.00;100473.75;5057800;28;20134;-68
2021/08/30 08:18:58;;;;;;;11.45;7.00;;;;;;;18.07;100.00;100482.84;5057307;28;20063;-65
2021/08/30 08:21:42;;;;;;;8.45;7.43;;;;;;;18.14;100.00;100482.94;5072548;28;20098;-68
2021/08/30 08:24:26;;;;;;;10.50;7.35;;;;;;;18.25;100.00;100485.16;5071570;28;20051;-68
2021/08/30 08:27:09;;;;;;;9.63;8.02;;;;;;;18.39;100.00;100472.50;5072476;28;20418;-68
2021/08/30 08:29:53;;;;;;;11.98;8.48;;;;;;;18.55;100.00;100479.53;5071773;28;20050;-68
2021/08/30 08:32:40;;;;;;;11.23;8.10;;;;;;;18.65;100.00;100475.53;5071801;28;20048;-68
2021/08/30 08:35:24;;;;;;;10.05;7.93;;;;;;;18.79;100.00;100480.03;5076147;28;20485;-67
2021/08/30 08:38:10;;;;;;;8.77;7.85;;;;;;;18.79;100.00;100482.72;5075318;28;20489;-68
2021/08/30 08:40:54;;;;;;;9.75;7.80;;;;;;;18.91;100.00;100483.94;5074954;28;20098;-68
2021/08/30 08:43:38;;;;;;;8.63;7.68;;;;;;;19.04;100.00;100477.78;5075030;28;20194;-68
2021/08/30 08:46:22;;;;;;;8.68;7.50;;;;;;;19.18;100.00;100480.47;5075000;28;20063;-68
2021/08/30 08:49:07;;;;;;;10.95;8.43;;;;;;;19.35;100.00;100486.41;5075085;28;20052;-67
2021/08/30 08:51:50;;;;;;;10.70;7.63;;;;;;;19.47;100.00;100490.25;5075126;28;20047;-67
2021/08/30 08:54:34;;;;;;;11.13;7.93;;;;;;;19.47;98.60;100487.56;5075009;28;20094;-68
2021/08/30 08:57:18;;;;;;;13.23;7.90;;;;;;;19.53;97.11;100492.19;5076076;28;20044;-68
2021/08/30 09:00:08;;;;;;;9.73;7.82;;;;;;;19.52;97.29;100493.22;5074619;28;20178;-67
2021/08/30 09:02:52;;;;;;;11.52;8.50;;;;;;;19.53;97.73;100486.78;5075686;28;20047;-68
2021/08/30 09:05:35;;;;;;;;;;;;;;;19.58;97.85;100497.88;5074992;28;20078;-67
2021/08/30 09:08:31;;;;;;;10.80;8.50;;;;;;;19.72;96.23;100499.63;5074540;28;19919;-67
2021/08/30 09:11:19;;;;;;;9.05;7.60;;;;;;;19.90;96.52;100503.50;5074977;28;20616;-68
2021/08/30 09:14:12;;;;;;;10.45;8.45;;;;;;;20.04;95.48;100496.34;5075540;28;20051;-68
2021/08/30 09:17:05;;;;;;;9.98;8.15;;;;;;;20.03;94.24;100498.19;5074167;28;20119;-67
2021/08/30 09:19:53;;;;;;;10.93;7.85;;;;;;;19.95;92.97;100497.50;5074603;28;20406;-66
2021/08/30 09:22:37;;;;;;;11.80;8.50;;;;;;;20.11;90.29;100498.03;5060521;28;20560;-67
2021/08/30 09:25:21;;;;;;;11.82;8.30;;;;;;;20.22;92.34;100496.66;5075240;28;20047;-68
2021/08/30 09:28:05;;;;;;;11.15;8.35;;;;;;;20.43;90.23;100494.66;5074256;28;20052;-69
2021/08/30 09:30:55;;;;;;;10.52;8.77;;;;;;;20.38;89.38;100496.28;5060098;28;20051;-68
2021/08/30 09:33:50;;;;;;;10.88;8.52;;;;;;;20.68;88.04;100494.94;5075043;28;20410;-67
2021/08/30 09:36:41;;;;;;;17.92;9.02;;;;;;;20.56;86.97;100488.47;5074248;28;20668;-68
2021/08/30 09:39:26;;;;;;;11.75;9.18;;;;;;;20.44;86.74;100490.09;5074003;28;20151;-68
2021/08/30 09:42:11;;;;;;;10.55;8.57;;;;;;;20.50;88.22;100489.28;5074090;28;20499;-68
2021/08/30 09:45:10;;;;;;;10.93;8.95;;;;;;;20.31;88.95;100496.28;5074059;28;20097;-68
2021/08/30 09:47:59;;;;;;;13.27;9.00;;;;;;;20.30;87.07;100488.38;5073993;28;20043;-67
2021/08/30 09:50:43;;;;;;;10.90;8.57;;;;;;;20.49;84.72;100501.13;5073865;28;20039;-67
2021/08/30 09:53:29;;;;;;;11.77;8.50;;;;;;;20.71;84.77;100492.69;5073798;28;20067;-68
2021/08/30 09:56:13;;;;;;;13.05;8.90;;;;;;;20.97;82.27;100498.22;5075141;28;20129;-68
2021/08/30 09:58:57;;;;;;;11.00;8.40;;;;;;;21.74;78.52;100485.75;5073634;28;20132;-68
2021/08/30 10:01:41;;;;;;;9.68;8.27;;;;;;;22.49;73.69;100486.00;5073469;28;20101;-67
2021/08/30 10:04:26;;;;;;;14.27;8.00;;;;;;;22.47;72.25;100483.50;5059604;28;20418;-67
2021/08/30 10:07:11;;;;;;;12.48;8.90;;;;;;;22.21;73.23;100478.13;5073585;28;20534;-67
2021/08/30 10:09:55;;;;;;;11.48;8.43;;;;;;;21.99;72.33;100474.00;5073555;28;20047;-67
2021/08/30 10:12:40;;;;;;;13.10;8.00;;;;;;;21.85;74.52;100479.69;5073604;28;20071;-67
2021/08/30 10:15:26;;;;;;;12.25;8.52;;;;;;;22.54;73.29;100489.75;5073497;28;20044;-67
2021/08/30 10:18:11;;;;;;;10.65;7.78;;;;;;;23.59;64.38;100484.47;5074240;28;20052;-68
2021/08/30 10:20:55;;;;;;;10.32;8.43;;;;;;;24.15;61.23;100483.28;5073321;28;20131;-67
2021/08/30 10:23:39;;;;;;;11.07;8.35;;;;;;;24.35;62.85;100486.63;5059172;28;20118;-67
2021/08/30 10:26:23;;;;;;;;;;;;;;;23.93;62.03;100484.78;5073388;28;20043;-68
2021/08/30 10:29:08;;;;;;;11.20;8.38;;;;;;;23.49;64.45;100490.41;5073380;28;19919;-68
2021/08/30 10:31:52;;;;;;;10.63;8.82;;;;;;;23.26;66.80;100494.78;5073180;28;20039;-68
2021/08/30 10:34:39;;;;;;;10.05;8.32;;;;;;;22.96;66.61;100505.41;5074339;28;20047;-67
2021/08/30 10:37:23;;;;;;;12.48;8.30;;;;;;;22.84;67.17;100498.97;5072983;28;20461;-67
2021/08/30 10:40:15;;;;;;;10.02;8.30;;;;;;;22.56;67.78;100494.94;5072903;28;20043;-68
2021/08/30 10:43:14;;;;;;;11.07;7.90;;;;;;;22.57;67.44;100492.03;5058555;28;20125;-68
2021/08/30 10:45:58;;;;;;;10.68;8.32;;;;;;;22.17;68.29;100504.06;5058478;28;20051;-67
2021/08/30 10:48:49;;;;;;;11.68;8.68;;;;;;;22.29;71.38;100506.94;5073733;28;20559;-67
2021/08/30 10:51:37;;;;;;;8.77;7.80;;;;;;;22.18;71.30;100502.16;5072799;28;20059;-68
2021/08/30 10:54:21;;;;;;;12.02;7.57;;;;;;;21.92;70.46;100510.38;5073705;28;20043;-67
2021/08/30 10:57:06;;;;;;;10.35;8.50;;;;;;;21.97;72.93;100505.97;5057918;28;20477;-68
2021/08/30 10:59:57;;;;;;;13.75;8.90;;;;;;;21.80;71.86;100512.88;5073488;28;20051;-68
2021/08/30 11:02:48;;;;;;;11.80;8.43;;;;;;;21.75;73.11;100507.25;5072702;28;20101;-67
2021/08/30 11:05:32;;;;;;;9.40;7.95;;;;;;;21.66;72.92;100511.22;5073789;28;20394;-67
2021/08/30 11:08:19;;;;;;;9.25;8.23;;;;;;;21.52;72.56;100511.41;5072419;28;20071;-68
2021/08/30 11:11:14;;;;;;;12.50;8.43;;;;;;;21.35;73.68;100507.41;5073353;28;20562;-67
2021/08/30 11:14:10;;;;;;;10.73;8.25;;;;;;;21.35;76.14;100510.13;5072650;28;20047;-68
2021/08/30 11:16:55;;;;;;;9.57;7.85;;;;;;;21.43;73.10;100504.50;5071920;28;20155;-68
2021/08/30 11:19:39;;;;;;;10.52;7.88;;;;;;;21.26;72.45;100509.50;5077395;22;20407;-70
2021/08/30 11:22:24;;;;;;;11.90;8.35;;;;;;;21.43;74.88;100510.78;5038247;28;20052;-69
2021/08/30 11:25:08;;;;;;;13.57;8.32;;;;;;;21.47;76.06;100514.75;5052076;28;20067;-67
2021/08/30 11:27:52;;;;;;;8.82;7.88;;;;;;;21.47;75.33;100522.88;5052179;28;20052;-70
2021/08/30 11:30:36;;;;;;;11.23;8.05;;;;;;;21.33;74.05;100515.78;5052265;28;20121;-70
2021/08/30 11:33:24;;;;;;;10.27;7.60;;;;;;;21.37;74.75;100521.63;5052051;28;20047;-70
2021/08/30 11:36:08;;;;;;;9.68;8.25;;;;;;;21.51;72.12;100513.28;5052218;28;20052;-70
2021/08/30 11:38:57;;;;;;;10.30;7.97;;;;;;;21.52;71.59;100514.97;5038070;28;20140;-70
2021/08/30 11:41:46;;;;;;;13.77;8.10;;;;;;;21.66;71.23;100511.22;5051680;28;20163;-70
2021/08/30 11:44:33;;;;;;;12.73;8.70;;;;;;;21.91;71.85;100504.09;5037994;28;20055;-70
2021/08/30 11:47:18;;;;;;;9.60;8.05;;;;;;;22.01;71.48;100515.34;5052096;28;20403;-70
2021/08/30 11:50:09;;;;;;;9.48;7.55;;;;;;;22.45;70.88;100510.06;5037518;28;20059;-69
2021/08/30 11:52:59;;;;;;;10.68;8.52;;;;;;;22.91;69.02;100510.66;5051782;28;20102;-67
2021/08/30 11:55:43;;;;;;;15.93;8.30;;;;;;;23.48;66.64;100505.09;5052071;28;20098;-70
2021/08/30 11:58:33;;;;;;;;;;;;;;;23.47;64.36;100503.41;5052236;28;20136;-70
2021/08/30 12:01:17;;;;;;;10.10;7.82;;;;;;;23.42;63.91;100507.84;5037848;28;20007;-70
2021/08/30 12:04:01;;;;;;;12.43;8.18;;;;;;;23.50;62.30;100513.84;5052025;28;20048;-69
2021/08/30 12:06:46;;;;;;;;;;;;;;;23.47;63.87;100514.31;5052384;28;20052;-70
2021/08/30 12:09:43;;;;;;;9.38;8.00;;;;;;;23.55;63.79;100510.47;5055298;28;19919;-69
2021/08/30 12:12:34;;;;;;;11.55;7.60;;;;;;;23.48;62.65;100512.41;5041788;28;20048;-70
2021/08/30 12:15:21;;;;;;;10.80;8.30;;;;;;;23.38;63.73;100515.63;5055501;28;20132;-70
2021/08/30 12:18:05;;;;;;;9.82;7.30;;;;;;;23.29;64.72;100513.38;5055748;28;20159;-70
2021/08/30 12:20:55;;;;;;;;;;;;;;;23.06;64.74;100513.09;5056212;28;20098;-70
2021/08/30 12:23:39;;;;;;;8.77;7.60;;;;;;;22.76;66.68;100523.72;5055623;28;19920;-70
2021/08/30 12:26:23;;;;;;;13.55;8.77;;;;;;;22.26;69.86;100519.06;5056324;28;20521;-68
2021/08/30 12:29:09;;;;;;;9.50;8.50;;;;;;;21.86;72.88;100530.19;5055343;28;20051;-70
2021/08/30 12:31:54;;;;;;;12.10;8.35;;;;;;;21.52;80.30;100525.81;5055288;28;20166;-70
2021/08/30 12:34:40;;;;;;;11.00;9.23;;;;;;;21.15;85.76;100528.25;5055268;28;20162;-70
2021/08/30 12:37:24;;;;;;;13.98;9.27;;;;;;;20.83;90.89;100530.88;5055627;28;20056;-70
2021/08/30 12:40:09;;;;;;;9.88;8.73;;;;;;;20.56;92.05;100531.78;5054950;28;20055;-70
2021/08/30 12:42:53;;;;;;;11.23;9.27;;;;;;;20.34;94.77;100532.94;5041229;28;20091;-70
2021/08/30 12:45:37;;;;;;;13.85;8.98;;;;;;;20.25;96.95;100535.00;5055187;28;20048;-70